createdAt,value
2019-02-23T00:02:10.258Z,68.80
2019-02-23T00:04:40.568Z,68.80
2019-02-23T00:07:11.024Z,68.90
2019-02-23T00:09:41.318Z,68.50
2019-02-23T00:12:13.275Z,68.60
2019-02-23T00:14:43.668Z,69.40
2019-02-23T00:17:14.817Z,69.00
2019-02-23T00:19:45.129Z,69.00
2019-02-23T00:22:15.463Z,69.10
2019-02-23T00:24:46.604Z,69.30
2019-02-23T00:27:18.618Z,69.30
2019-02-23T00:29:49.036Z,69.30
2019-02-23T00:32:19.403Z,69.50
2019-02-23T00:34:49.717Z,69.60
2019-02-23T00:37:21.502Z,69.70
2019-02-23T00:39:51.801Z,69.90
2019-02-23T00:42:22.120Z,69.90
2019-02-23T00:44:52.460Z,69.90
2019-02-23T00:47:23.410Z,70.20
2019-02-23T00:49:53.763Z,69.90
2019-02-23T00:52:24.056Z,70.10
2019-02-23T00:54:54.336Z,70.30
2019-02-23T00:57:24.658Z,70.30
2019-02-23T00:59:55.030Z,70.50
2019-02-23T01:02:25.345Z,70.60
2019-02-23T01:04:55.654Z,70.80
2019-02-23T01:07:26.048Z,71.00
2019-02-23T01:09:56.348Z,71.20
2019-02-23T01:12:26.674Z,71.40
2019-02-23T01:14:57.006Z,72.00
2019-02-23T01:17:28.996Z,71.60
2019-02-23T01:19:59.346Z,71.60
2019-02-23T01:22:29.688Z,71.70
2019-02-23T01:25:00.325Z,71.90
2019-02-23T01:27:31.871Z,72.00
2019-02-23T01:30:02.208Z,72.40
2019-02-23T01:32:32.874Z,72.20
2019-02-23T01:35:03.221Z,72.40
2019-02-23T01:37:33.534Z,72.50
2019-02-23T01:40:04.174Z,72.50
2019-02-23T01:42:34.528Z,72.70
2019-02-23T01:45:05.178Z,72.80
2019-02-23T01:47:35.492Z,72.80
2019-02-23T01:50:06.882Z,73.00
2019-02-23T01:52:37.183Z,73.30
2019-02-23T01:55:09.044Z,73.60
2019-02-23T01:57:39.366Z,73.70
2019-02-23T02:00:12.475Z,73.70
2019-02-23T02:02:43.240Z,74.10
2019-02-23T02:05:13.640Z,74.10
2019-02-23T02:07:43.995Z,74.10
2019-02-23T02:10:14.299Z,74.20
2019-02-23T02:12:44.612Z,74.20
2019-02-23T02:15:15.730Z,74.40
2019-02-23T02:17:46.053Z,74.50
2019-02-23T02:20:16.431Z,74.50
2019-02-23T02:22:46.776Z,74.50
2019-02-23T02:25:17.082Z,74.60
2019-02-23T02:27:47.402Z,74.70
2019-02-23T02:30:17.784Z,74.70
2019-02-23T02:32:48.280Z,74.80
2019-02-23T02:35:18.685Z,75.20
2019-02-23T02:37:49.009Z,75.20
2019-02-23T02:40:19.363Z,76.00
2019-02-23T02:42:49.692Z,75.10
2019-02-23T02:45:20.034Z,75.40
2019-02-23T02:47:51.256Z,75.20
2019-02-23T02:50:24.474Z,75.30
2019-02-23T02:52:53.533Z,75.20
2019-02-23T02:55:23.852Z,75.40
2019-02-23T02:57:54.160Z,75.80
2019-02-23T03:00:24.507Z,75.50
2019-02-23T03:02:54.843Z,75.10
2019-02-23T03:05:25.212Z,74.90
2019-02-23T03:07:55.526Z,74.80
2019-02-23T03:10:25.938Z,74.80
2019-02-23T03:12:56.266Z,74.70
2019-02-23T03:15:26.586Z,74.90
2019-02-23T03:17:57.666Z,75.30
2019-02-23T03:20:36.211Z,75.10
2019-02-23T03:23:00.004Z,74.90
2019-02-23T03:25:30.331Z,75.10
2019-02-23T03:28:00.660Z,74.80
2019-02-23T03:30:30.997Z,75.20
2019-02-23T03:33:01.456Z,75.30
2019-02-23T03:35:31.755Z,75.20
2019-02-23T03:38:02.087Z,75.30
2019-02-23T03:40:32.374Z,75.30
2019-02-23T03:43:02.722Z,75.40
2019-02-23T03:45:33.024Z,75.60
2019-02-23T03:48:03.784Z,75.50
2019-02-23T03:50:34.140Z,75.50
2019-02-23T03:53:04.676Z,75.60
2019-02-23T03:55:35.108Z,75.80
2019-02-23T03:58:05.476Z,75.80
2019-02-23T04:00:35.766Z,76.10
2019-02-23T04:03:06.184Z,76.40
2019-02-23T04:05:36.507Z,76.30
2019-02-23T04:08:06.841Z,76.30
2019-02-23T04:10:37.208Z,76.40
2019-02-23T04:13:07.530Z,76.70
2019-02-23T04:15:37.855Z,76.80
2019-02-23T04:18:08.323Z,77.10
2019-02-23T04:20:39.120Z,77.10
2019-02-23T04:23:09.436Z,77.10
2019-02-23T04:25:39.856Z,77.10
2019-02-23T04:28:10.192Z,77.20
2019-02-23T04:30:40.540Z,77.40
2019-02-23T04:33:10.852Z,77.40
2019-02-23T04:35:41.164Z,77.90
2019-02-23T04:38:11.556Z,78.20
2019-02-23T04:40:42.317Z,78.30
2019-02-23T04:43:12.652Z,78.20
2019-02-23T04:45:43.002Z,78.00
2019-02-23T04:48:14.016Z,78.00
2019-02-23T04:50:44.376Z,78.20
2019-02-23T04:53:14.746Z,78.30
2019-02-23T04:55:45.096Z,79.30
2019-02-23T04:58:15.391Z,78.80
2019-02-23T05:00:45.716Z,78.90
2019-02-23T05:03:16.026Z,79.10
2019-02-23T05:05:46.417Z,79.10
2019-02-23T05:08:16.725Z,79.50
2019-02-23T05:10:47.072Z,80.00
2019-02-23T05:13:17.352Z,80.00
2019-02-23T05:15:47.708Z,80.10
2019-02-23T05:18:19.470Z,80.20
2019-02-23T05:20:49.812Z,81.10
2019-02-23T05:23:20.145Z,80.00
2019-02-23T05:25:50.463Z,79.80
2019-02-23T05:28:20.819Z,80.00
2019-02-23T05:30:51.140Z,80.00
2019-02-23T05:33:21.496Z,80.20
2019-02-23T05:35:51.828Z,80.30
2019-02-23T05:38:22.158Z,80.70
2019-02-23T05:40:52.472Z,80.60
2019-02-23T05:43:22.804Z,80.20
2019-02-23T05:45:53.186Z,79.20
2019-02-23T05:48:25.000Z,78.30
2019-02-23T05:50:55.322Z,78.10
2019-02-23T05:53:25.640Z,78.60
2019-02-23T05:55:55.978Z,78.90
2019-02-23T05:58:26.331Z,78.90
2019-02-23T06:00:56.670Z,78.90
2019-02-23T06:03:27.032Z,78.50
2019-02-23T06:05:57.448Z,78.50
2019-02-23T06:08:27.852Z,78.20
2019-02-23T06:11:10.739Z,77.90
2019-02-23T06:13:41.026Z,77.70
2019-02-23T06:16:11.384Z,77.40
2019-02-23T06:18:42.825Z,77.20
2019-02-23T06:21:13.207Z,77.00
2019-02-23T06:23:43.542Z,77.00
2019-02-23T06:26:13.909Z,76.40
2019-02-23T06:28:44.224Z,76.20
2019-02-23T06:31:14.537Z,76.00
2019-02-23T06:33:44.868Z,75.60
2019-02-23T06:36:15.173Z,76.10
2019-02-23T06:38:45.496Z,75.10
2019-02-23T06:41:15.881Z,74.90
2019-02-23T06:43:46.204Z,74.40
2019-02-23T06:46:16.934Z,74.00
2019-02-23T06:48:47.732Z,73.30
2019-02-23T06:51:18.136Z,73.00
2019-02-23T06:53:48.584Z,73.00
2019-02-23T06:56:18.981Z,72.70
2019-02-23T06:58:49.276Z,72.70
2019-02-23T07:01:25.466Z,72.00
2019-02-23T07:03:55.788Z,71.40
2019-02-23T07:06:26.197Z,71.10
2019-02-23T07:08:57.193Z,71.00
2019-02-23T07:11:27.852Z,71.10
2019-02-23T07:13:58.260Z,70.60
2019-02-23T07:16:28.600Z,70.60
2019-02-23T07:19:02.120Z,70.80
2019-02-23T07:21:32.103Z,70.20
2019-02-23T07:24:02.430Z,69.90
2019-02-23T07:26:32.786Z,69.30
2019-02-23T07:29:03.133Z,69.00
2019-02-23T07:31:33.468Z,68.70
2019-02-23T07:34:03.851Z,68.70
2019-02-23T07:36:34.168Z,68.20
2019-02-23T07:39:06.046Z,67.80
2019-02-23T07:41:37.250Z,67.70
2019-02-23T07:44:07.510Z,67.20
2019-02-23T07:46:37.893Z,67.10
2019-02-23T07:49:09.692Z,65.50
2019-02-23T07:51:41.895Z,66.30
2019-02-23T07:54:12.220Z,65.50
2019-02-23T07:56:42.617Z,65.30
2019-02-23T07:59:12.936Z,64.90
2019-02-23T08:01:43.271Z,64.40
2019-02-23T08:04:13.640Z,63.90
2019-02-23T08:06:44.084Z,63.20
2019-02-23T08:09:14.484Z,62.70
2019-02-23T08:11:44.832Z,59.00
2019-02-23T08:14:15.184Z,59.70
2019-02-23T08:16:45.586Z,58.50
2019-02-23T08:19:16.066Z,58.60
2019-02-23T08:21:46.435Z,58.90
2019-02-23T08:24:16.820Z,59.10
2019-02-23T08:26:47.211Z,59.70
2019-02-23T08:29:18.238Z,59.30
2019-02-23T08:31:48.568Z,58.60
2019-02-23T08:34:18.872Z,58.50
2019-02-23T08:36:49.216Z,58.00
2019-02-23T08:39:19.594Z,58.20
2019-02-23T08:41:49.942Z,58.50
2019-02-23T08:44:20.255Z,58.40
2019-02-23T08:47:00.578Z,57.70
2019-02-23T08:49:31.067Z,57.80
2019-02-23T08:52:01.406Z,57.90
2019-02-23T08:54:31.741Z,58.30
2019-02-23T08:57:02.440Z,57.80
2019-02-23T08:59:32.868Z,57.60
2019-02-23T09:02:03.325Z,57.60
2019-02-23T09:04:33.773Z,56.40
2019-02-23T09:07:04.173Z,56.10
2019-02-23T09:09:34.484Z,55.90
2019-02-23T09:12:04.846Z,56.00
2019-02-23T09:14:35.602Z,55.30
2019-02-23T09:17:05.991Z,53.90
2019-02-23T09:19:36.926Z,52.00
2019-02-23T09:22:07.252Z,51.10
2019-02-23T09:24:37.594Z,49.90
2019-02-23T09:27:07.921Z,49.20
2019-02-23T09:29:38.257Z,47.50
2019-02-23T09:32:08.664Z,44.70
2019-02-23T09:34:39.129Z,41.60
2019-02-23T09:37:09.904Z,37.90
2019-02-23T09:39:40.249Z,36.10
2019-02-23T09:42:11.494Z,34.20
2019-02-23T09:44:41.922Z,32.60
2019-02-23T09:47:12.384Z,30.40
2019-02-23T09:49:42.948Z,29.30
2019-02-23T09:52:13.264Z,28.80
2019-02-23T09:54:43.584Z,28.70
2019-02-23T09:57:13.988Z,29.30
2019-02-23T09:59:44.359Z,30.60
2019-02-23T10:02:14.738Z,31.70
2019-02-23T10:04:45.878Z,32.50
2019-02-23T10:07:16.290Z,33.70
2019-02-23T10:09:46.628Z,32.90
2019-02-23T10:12:16.981Z,33.20
2019-02-23T10:14:47.349Z,33.70
2019-02-23T10:17:17.667Z,33.80
2019-02-23T10:19:48.535Z,34.30
2019-02-23T10:22:20.004Z,35.30
2019-02-23T10:24:50.363Z,35.50
2019-02-23T10:27:20.739Z,36.50
2019-02-23T10:29:51.122Z,37.10
2019-02-23T10:32:21.393Z,37.20
2019-02-23T10:34:51.732Z,37.60
2019-02-23T10:37:22.082Z,38.00
2019-02-23T10:39:52.422Z,37.80
2019-02-23T10:42:23.849Z,37.20
2019-02-23T10:44:54.604Z,36.80
2019-02-23T10:47:25.184Z,37.70
2019-02-23T10:49:56.448Z,37.90
2019-02-23T10:52:26.763Z,37.80
2019-02-23T10:54:57.126Z,37.60
2019-02-23T10:57:27.469Z,37.90
2019-02-23T10:59:57.827Z,37.80
2019-02-23T11:02:28.121Z,37.80
2019-02-23T11:04:58.436Z,37.80
2019-02-23T11:07:29.888Z,37.40
2019-02-23T11:10:00.321Z,37.40
2019-02-23T11:12:30.659Z,38.20
2019-02-23T11:15:00.986Z,38.40
2019-02-23T11:17:31.417Z,38.20
2019-02-23T11:20:03.165Z,38.40
2019-02-23T11:22:33.533Z,39.20
2019-02-23T11:25:04.154Z,39.70
2019-02-23T11:27:34.534Z,39.70
2019-02-23T11:30:05.957Z,39.80
2019-02-23T11:32:37.312Z,39.50
2019-02-23T11:35:08.548Z,39.80
2019-02-23T11:37:38.870Z,40.10
2019-02-23T11:40:10.185Z,39.60
2019-02-23T11:42:40.600Z,40.00
2019-02-23T11:45:11.344Z,40.30
2019-02-23T11:47:41.640Z,41.00
2019-02-23T11:50:12.846Z,41.40
2019-02-23T11:52:43.182Z,42.20
2019-02-23T11:55:13.746Z,41.60
2019-02-23T11:57:47.925Z,41.90
2019-02-23T12:00:19.630Z,42.30
2019-02-23T12:02:52.719Z,42.60
2019-02-23T12:05:21.998Z,43.00
2019-02-23T12:07:52.368Z,43.40
2019-02-23T12:10:22.713Z,43.90
2019-02-23T12:12:53.237Z,44.20
2019-02-23T12:15:23.628Z,44.40
2019-02-23T12:17:53.949Z,45.70
2019-02-23T12:20:25.532Z,45.40
2019-02-23T12:22:55.883Z,45.60
2019-02-23T12:25:26.279Z,45.40
2019-02-23T12:27:56.740Z,45.60
2019-02-23T12:30:27.059Z,45.40
2019-02-23T12:32:57.432Z,45.90
2019-02-23T12:35:29.000Z,46.00
2019-02-23T12:37:59.596Z,46.00
2019-02-23T12:40:29.956Z,45.70
2019-02-23T12:43:00.291Z,45.60
2019-02-23T12:45:30.728Z,45.20
2019-02-23T12:48:01.034Z,45.50
2019-02-23T12:50:33.394Z,45.60
2019-02-23T12:53:04.105Z,44.90
2019-02-23T12:55:34.438Z,44.40
2019-02-23T12:58:04.761Z,44.30
2019-02-23T13:00:35.128Z,43.40
2019-02-23T13:03:05.896Z,43.80
2019-02-23T13:05:36.242Z,43.00
2019-02-23T13:08:06.645Z,43.00
2019-02-23T13:10:38.356Z,43.00
2019-02-23T13:13:36.996Z,43.10
2019-02-23T13:16:16.010Z,42.50
2019-02-23T13:19:10.276Z,42.10
2019-02-23T13:21:53.996Z,42.60
2019-02-23T13:25:17.548Z,42.70
2019-02-23T13:28:07.524Z,42.90
2019-02-23T13:31:18.341Z,43.10
2019-02-23T13:34:23.905Z,43.30
2019-02-23T13:37:30.411Z,43.60
2019-02-23T13:40:25.269Z,43.10
2019-02-23T13:43:43.972Z,43.90
2019-02-23T13:46:45.299Z,44.20
2019-02-23T13:49:35.866Z,43.90
2019-02-23T13:52:44.157Z,43.70
2019-02-23T13:55:58.689Z,43.00
2019-02-23T13:58:39.534Z,43.40
2019-02-23T14:01:43.272Z,44.20
2019-02-23T14:04:56.539Z,44.80
2019-02-23T14:08:11.234Z,45.10
2019-02-23T14:11:14.358Z,45.50
2019-02-23T14:14:16.704Z,46.10
2019-02-23T14:17:39.872Z,45.90
2019-02-23T14:20:33.843Z,46.10
2019-02-23T14:23:41.337Z,46.20
2019-02-23T14:27:04.925Z,46.80
2019-02-23T14:29:55.527Z,46.70
2019-02-23T14:33:00.254Z,47.10
2019-02-23T14:35:57.198Z,47.50
2019-02-23T14:39:20.675Z,47.90
2019-02-23T14:41:57.025Z,48.20
2019-02-23T14:45:19.160Z,47.90
2019-02-23T14:48:33.834Z,48.10
2019-02-23T14:52:12.311Z,48.50
2019-02-23T14:55:27.820Z,48.30
2019-02-23T14:58:41.133Z,48.50
2019-02-23T15:02:10.666Z,48.80
2019-02-23T15:05:05.484Z,48.70
2019-02-23T15:08:28.568Z,49.40
2019-02-23T15:11:53.222Z,49.50
2019-02-23T15:14:52.580Z,49.90
2019-02-23T15:18:15.185Z,50.00
2019-02-23T15:20:55.122Z,50.60
2019-02-23T15:23:48.284Z,50.80
2019-02-23T15:26:51.178Z,50.50
2019-02-23T15:30:13.232Z,50.60
2019-02-23T15:33:33.709Z,50.50
2019-02-23T15:36:45.094Z,50.70
2019-02-23T15:40:14.815Z,51.60
2019-02-23T15:43:21.921Z,51.30
2019-02-23T15:46:48.243Z,52.20
2019-02-23T15:49:35.348Z,51.30
2019-02-23T15:52:09.725Z,51.30
2019-02-23T15:54:40.092Z,51.30
2019-02-23T15:57:10.497Z,51.80
2019-02-23T15:59:44.272Z,52.00
2019-02-23T16:02:12.875Z,51.90
2019-02-23T16:04:43.194Z,52.20
2019-02-23T16:07:13.588Z,52.40
2019-02-23T16:09:43.925Z,52.50
2019-02-23T16:12:14.462Z,52.70
2019-02-23T16:14:44.792Z,52.90
2019-02-23T16:17:16.446Z,53.20
2019-02-23T16:19:47.848Z,53.50
2019-02-23T16:22:18.824Z,53.40
2019-02-23T16:24:50.148Z,53.30
2019-02-23T16:27:21.973Z,53.00
2019-02-23T16:29:52.342Z,53.00
2019-02-23T16:32:22.747Z,53.40
2019-02-23T16:34:53.084Z,53.70
2019-02-23T16:37:23.416Z,53.80
2019-02-23T16:39:53.888Z,53.80
2019-02-23T16:42:24.227Z,54.10
2019-02-23T16:44:55.432Z,54.50
2019-02-23T16:47:25.749Z,54.60
2019-02-23T16:49:56.148Z,54.60
2019-02-23T16:52:27.600Z,54.30
2019-02-23T16:54:57.957Z,54.20
2019-02-23T16:57:29.161Z,54.30
2019-02-23T16:59:59.589Z,54.60
2019-02-23T17:02:30.229Z,54.70
2019-02-23T17:05:00.597Z,54.50
2019-02-23T17:07:31.046Z,54.80
2019-02-23T17:10:01.426Z,55.00
2019-02-23T17:12:34.353Z,55.20
2019-02-23T17:15:04.735Z,55.40
2019-02-23T17:17:39.452Z,55.70
2019-02-23T17:20:11.073Z,55.80
2019-02-23T17:22:54.068Z,55.70
2019-02-23T17:25:27.923Z,55.50
2019-02-23T17:28:03.023Z,55.30
2019-02-23T17:30:33.386Z,55.40
2019-02-23T17:33:03.796Z,55.70
2019-02-23T17:35:34.189Z,55.30
2019-02-23T17:38:15.649Z,54.90
2019-02-23T17:40:36.660Z,54.90
2019-02-23T17:43:07.000Z,55.10
2019-02-23T17:45:37.387Z,55.30
2019-02-23T17:48:07.833Z,55.40
2019-02-23T17:50:38.224Z,55.50
2019-02-23T17:53:08.583Z,55.60
2019-02-23T17:55:39.485Z,55.80
2019-02-23T17:58:10.045Z,55.90
2019-02-23T18:00:40.504Z,56.30
2019-02-23T18:03:11.262Z,56.60
2019-02-23T18:05:41.786Z,56.90
2019-02-23T18:08:12.189Z,56.90
2019-02-23T18:10:42.590Z,56.90
2019-02-23T18:13:12.968Z,57.00
2019-02-23T18:15:44.060Z,57.40
2019-02-23T18:18:14.424Z,57.40
2019-02-23T18:20:45.184Z,57.50
2019-02-23T18:23:16.795Z,57.70
2019-02-23T18:25:48.374Z,58.20
2019-02-23T18:28:18.808Z,58.40
2019-02-23T18:30:49.219Z,58.60
2019-02-23T18:33:19.939Z,58.90
2019-02-23T18:35:50.442Z,59.30
2019-02-23T18:38:21.112Z,59.70
2019-02-23T18:40:51.651Z,60.10
2019-02-23T18:43:21.981Z,60.20
2019-02-23T18:45:54.267Z,60.50
2019-02-23T18:48:24.770Z,60.80
2019-02-23T18:50:55.200Z,60.60
2019-02-23T18:53:25.638Z,61.40
2019-02-23T18:55:56.069Z,60.70
2019-02-23T18:58:26.484Z,60.90
2019-02-23T19:00:56.816Z,61.10
2019-02-23T19:03:27.237Z,61.40
2019-02-23T19:05:57.668Z,61.70
2019-02-23T19:08:29.351Z,62.10
2019-02-23T19:10:59.729Z,62.20
2019-02-23T19:13:30.156Z,62.50
2019-02-23T19:16:00.496Z,62.70
2019-02-23T19:18:30.900Z,62.30
2019-02-23T19:21:02.230Z,61.80
2019-02-23T19:23:32.640Z,62.00
2019-02-23T19:26:03.433Z,62.30
2019-02-23T19:28:42.919Z,62.70
2019-02-23T19:31:07.393Z,62.30
2019-02-23T19:33:38.113Z,62.50
2019-02-23T19:36:08.549Z,62.50
2019-02-23T19:38:38.952Z,62.60
2019-02-23T19:41:09.420Z,62.50
2019-02-23T19:43:39.850Z,62.50
2019-02-23T19:46:10.274Z,62.70
2019-02-23T19:48:40.681Z,62.80
2019-02-23T19:51:11.371Z,62.70
2019-02-23T19:53:42.217Z,62.60
2019-02-23T19:56:12.724Z,62.40
2019-02-23T19:58:43.181Z,62.20
2019-02-23T20:01:13.582Z,62.00
2019-02-23T20:03:45.011Z,61.90
2019-02-23T20:06:15.884Z,62.20
2019-02-23T20:08:46.297Z,62.00
2019-02-23T20:11:16.699Z,61.80
2019-02-23T20:13:47.140Z,61.90
2019-02-23T20:16:18.768Z,62.10
2019-02-23T20:18:49.124Z,62.50
2019-02-23T20:21:19.543Z,62.70
2019-02-23T20:23:50.919Z,63.60
2019-02-23T20:26:21.312Z,62.60
2019-02-23T20:28:51.788Z,62.50
2019-02-23T20:31:22.229Z,62.80
2019-02-23T20:33:52.671Z,62.60
2019-02-23T20:36:23.096Z,62.90
2019-02-23T20:38:53.564Z,63.00
2019-02-23T20:41:25.489Z,63.00
2019-02-23T20:43:57.105Z,63.10
2019-02-23T20:46:27.813Z,63.50
2019-02-23T20:48:58.279Z,63.40
2019-02-23T20:51:28.646Z,63.60
2019-02-23T20:53:59.194Z,63.90
2019-02-23T20:56:29.529Z,63.70
2019-02-23T20:59:01.252Z,63.60
2019-02-23T21:01:32.800Z,63.40
2019-02-23T21:04:03.638Z,63.10
2019-02-23T21:06:34.013Z,63.40
2019-02-23T21:09:04.899Z,63.10
2019-02-23T21:11:36.884Z,63.10
2019-02-23T21:14:07.209Z,63.40
2019-02-23T21:16:49.184Z,63.20
2019-02-23T21:19:19.480Z,62.90
2019-02-23T21:21:49.869Z,62.80
2019-02-23T21:24:20.185Z,62.90
2019-02-23T21:26:50.526Z,63.10
2019-02-23T21:29:24.556Z,63.00
2019-02-23T21:31:55.463Z,63.00
2019-02-23T21:34:25.855Z,63.00
2019-02-23T21:36:56.225Z,63.10
2019-02-23T21:39:26.753Z,63.30
2019-02-23T21:41:57.183Z,63.40
2019-02-23T21:44:28.472Z,63.20
2019-02-23T21:46:58.823Z,63.10
2019-02-23T21:49:29.168Z,63.10
2019-02-23T21:51:59.554Z,63.00
2019-02-23T21:54:29.901Z,63.10
2019-02-23T21:57:00.293Z,63.30
2019-02-23T21:59:31.259Z,63.30
2019-02-23T22:02:01.698Z,63.20
2019-02-23T22:04:32.201Z,63.30
2019-02-23T22:07:02.669Z,63.40
2019-02-23T22:09:33.071Z,63.10
2019-02-23T22:12:03.409Z,63.10
2019-02-23T22:14:33.751Z,63.10
2019-02-23T22:17:04.251Z,63.30
2019-02-23T22:19:34.964Z,63.10
2019-02-23T22:22:05.316Z,63.20
2019-02-23T22:24:35.619Z,63.30
2019-02-23T22:27:05.929Z,63.60
2019-02-23T22:29:37.437Z,63.80
2019-02-23T22:32:07.784Z,64.10
2019-02-23T22:34:38.275Z,64.50
2019-02-23T22:37:08.601Z,64.70
2019-02-23T22:39:38.956Z,64.80
2019-02-23T22:42:09.326Z,64.80
2019-02-23T22:44:39.666Z,64.70
2019-02-23T22:47:10.042Z,64.80
2019-02-23T22:49:41.672Z,64.50
2019-02-23T22:52:12.737Z,64.30
2019-02-23T22:54:43.459Z,64.50
2019-02-23T22:57:13.814Z,64.30
2019-02-23T22:59:47.358Z,64.40
2019-02-23T23:02:19.673Z,64.50
2019-02-23T23:04:53.778Z,64.60
2019-02-23T23:07:26.929Z,64.60
2019-02-23T23:09:57.326Z,64.00
2019-02-23T23:12:28.321Z,64.00
2019-02-23T23:14:58.975Z,64.30
2019-02-23T23:17:29.391Z,64.60
2019-02-23T23:20:01.225Z,64.00
2019-02-23T23:22:33.824Z,63.70
2019-02-23T23:25:07.441Z,63.80
2019-02-23T23:27:48.839Z,64.00
2019-02-23T23:30:16.189Z,64.10
2019-02-23T23:32:50.016Z,64.00
2019-02-23T23:35:21.436Z,63.90
2019-02-23T23:37:51.820Z,64.20
2019-02-23T23:40:22.175Z,64.30
2019-02-23T23:42:58.228Z,64.50
2019-02-23T23:45:24.522Z,64.10
2019-02-23T23:47:54.896Z,64.30
2019-02-23T23:50:26.082Z,64.50
2019-02-23T23:52:58.057Z,64.60
2019-02-23T23:55:30.628Z,64.90
2019-02-23T23:58:01.100Z,64.80
